createdAt,value
2022-09-23T00:02:36.859Z,6.73
2022-09-23T00:05:36.865Z,6.77
2022-09-23T00:08:36.864Z,6.75
2022-09-23T00:11:36.880Z,6.69
2022-09-23T00:14:36.907Z,6.69
2022-09-23T00:17:36.921Z,6.7
2022-09-23T00:20:36.949Z,6.65
2022-09-23T00:23:36.970Z,6.66
2022-09-23T00:26:36.967Z,6.62
2022-09-23T00:29:36.987Z,6.63
2022-09-23T00:32:37.002Z,6.6
2022-09-23T00:35:37.019Z,6.61
2022-09-23T00:38:37.030Z,6.55
2022-09-23T00:41:37.087Z,6.52
2022-09-23T00:44:37.072Z,6.53
2022-09-23T00:47:37.093Z,6.51
2022-09-23T00:50:37.107Z,6.53
2022-09-23T00:53:37.125Z,6.48
2022-09-23T00:56:37.146Z,6.5
2022-09-23T00:59:37.206Z,6.54
2022-09-23T01:02:37.232Z,6.56
2022-09-23T01:05:37.203Z,6.57
2022-09-23T01:08:37.223Z,6.58
2022-09-23T01:11:37.234Z,6.54
2022-09-23T01:14:37.247Z,6.48
2022-09-23T01:17:37.297Z,6.48
2022-09-23T01:20:37.292Z,6.53
2022-09-23T01:23:37.305Z,6.55
2022-09-23T01:26:37.315Z,6.55
2022-09-23T01:29:37.330Z,6.59
2022-09-23T01:32:37.348Z,6.53
2022-09-23T01:35:37.390Z,6.47
2022-09-23T01:38:37.369Z,6.47
2022-09-23T01:41:37.384Z,6.5
2022-09-23T01:44:37.398Z,6.51
2022-09-23T01:47:37.407Z,6.47
2022-09-23T01:50:37.424Z,6.47
2022-09-23T01:53:37.595Z,6.47
2022-09-23T01:56:37.441Z,6.47
2022-09-23T01:59:37.447Z,6.48
2022-09-23T02:02:37.495Z,6.44
2022-09-23T02:05:37.465Z,6.43
2022-09-23T02:08:37.477Z,6.4
2022-09-23T02:11:37.511Z,6.4
2022-09-23T02:14:37.500Z,6.4
2022-09-23T02:17:37.515Z,6.41
2022-09-23T02:20:37.534Z,6.42
2022-09-23T02:23:37.547Z,6.44
2022-09-23T02:26:37.560Z,6.46
2022-09-23T02:29:37.598Z,6.46
2022-09-23T02:32:37.595Z,6.46
2022-09-23T02:35:37.611Z,6.41
2022-09-23T02:38:37.621Z,6.46
2022-09-23T02:41:37.628Z,6.44
2022-09-23T02:44:37.646Z,6.49
2022-09-23T02:47:37.686Z,6.49
2022-09-23T02:50:37.669Z,6.49
2022-09-23T02:53:37.667Z,6.48
2022-09-23T02:56:37.674Z,6.47
2022-09-23T02:59:37.691Z,6.51
2022-09-23T03:02:37.764Z,6.51
2022-09-23T03:05:37.746Z,6.51
2022-09-23T03:08:37.729Z,6.51
2022-09-23T03:11:37.749Z,6.53
2022-09-23T03:14:37.764Z,6.53
2022-09-23T03:17:37.779Z,6.52
2022-09-23T03:20:37.795Z,6.52
2022-09-23T03:23:37.834Z,6.52
2022-09-23T03:26:37.822Z,6.48
2022-09-23T03:29:37.834Z,6.52
2022-09-23T03:32:37.835Z,6.48
2022-09-23T03:35:37.846Z,6.47
2022-09-23T03:38:37.859Z,6.41
2022-09-23T03:41:37.885Z,6.35
2022-09-23T03:44:37.867Z,6.3
2022-09-23T03:47:37.881Z,6.25
2022-09-23T03:50:37.901Z,6.17
2022-09-23T03:53:37.902Z,6.21
2022-09-23T03:56:37.916Z,6.19
2022-09-23T03:59:37.959Z,6.21
2022-09-23T04:02:37.939Z,6.27
2022-09-23T04:05:37.954Z,6.3
2022-09-23T04:08:37.975Z,6.31
2022-09-23T04:11:37.995Z,6.31
2022-09-23T04:14:37.999Z,6.32
2022-09-23T04:17:38.051Z,6.33
2022-09-23T04:20:38.029Z,6.29
2022-09-23T04:23:38.037Z,6.27
2022-09-23T04:26:38.039Z,6.22
2022-09-23T04:29:38.045Z,6.21
2022-09-23T04:32:38.057Z,6.12
2022-09-23T04:35:40.254Z,6.12
2022-09-23T04:38:38.078Z,6.07
2022-09-23T04:41:38.095Z,6.08
2022-09-23T04:44:38.109Z,6.04
2022-09-23T04:47:38.125Z,6.04
2022-09-23T04:50:38.130Z,6.05
2022-09-23T04:53:38.172Z,6.16
2022-09-23T04:56:38.159Z,6.18
2022-09-23T04:59:38.172Z,6.23
2022-09-23T05:02:38.208Z,6.25
2022-09-23T05:05:38.192Z,6.3
2022-09-23T05:08:38.200Z,6.35
2022-09-23T05:11:38.239Z,6.35
2022-09-23T05:14:38.237Z,6.35
2022-09-23T05:17:38.257Z,6.3
2022-09-23T05:20:38.265Z,6.32
2022-09-23T05:23:38.287Z,6.33
2022-09-23T05:26:38.313Z,6.33
2022-09-23T05:29:38.353Z,6.38
2022-09-23T05:32:38.349Z,6.43
2022-09-23T05:35:38.367Z,6.44
2022-09-23T05:38:38.402Z,6.48
2022-09-23T05:41:38.428Z,6.56
2022-09-23T05:44:38.453Z,6.6
2022-09-23T05:47:38.485Z,6.65
2022-09-23T05:50:38.492Z,6.73
2022-09-23T05:53:38.495Z,6.81
2022-09-23T05:56:38.512Z,6.93
2022-09-23T05:59:38.535Z,7.09
2022-09-23T06:02:38.604Z,7.22
2022-09-23T06:05:38.608Z,7.33
2022-09-23T06:08:38.581Z,7.35
2022-09-23T06:11:38.596Z,7.38
2022-09-23T06:14:38.615Z,7.38
2022-09-23T06:17:38.642Z,7.41
2022-09-23T06:20:38.665Z,7.48
2022-09-23T06:23:40.987Z,7.54
2022-09-23T06:26:38.703Z,7.55
2022-09-23T06:29:38.726Z,7.58
2022-09-23T06:32:38.751Z,7.57
2022-09-23T06:35:38.949Z,7.52
2022-09-23T06:38:38.797Z,7.56
2022-09-23T06:41:38.840Z,7.62
2022-09-23T06:44:38.832Z,7.59
2022-09-23T06:47:38.843Z,7.58
2022-09-23T06:50:38.866Z,7.58
2022-09-23T06:53:38.894Z,7.57
2022-09-23T06:56:39.782Z,7.56
2022-09-23T06:59:38.960Z,7.56
2022-09-23T07:02:39.036Z,7.53
2022-09-23T07:05:38.950Z,7.63
2022-09-23T07:08:38.975Z,7.7
2022-09-23T07:11:38.998Z,7.78
2022-09-23T07:14:39.026Z,7.8
2022-09-23T07:17:39.089Z,7.76
2022-09-23T07:20:39.070Z,7.8
2022-09-23T07:23:39.102Z,7.83
2022-09-23T07:26:42.314Z,7.89
2022-09-23T07:29:47.406Z,7.92
2022-09-23T07:32:46.539Z,7.98
2022-09-23T07:35:39.212Z,8.05
2022-09-23T07:38:42.923Z,8.11
2022-09-23T07:41:39.204Z,8.25
2022-09-23T07:44:39.218Z,8.28
2022-09-23T07:47:39.224Z,8.29
2022-09-23T07:50:39.240Z,8.27
2022-09-23T07:53:39.263Z,8.31
2022-09-23T07:56:39.261Z,8.36
2022-09-23T07:59:39.256Z,8.44
2022-09-23T08:02:39.307Z,8.45
2022-09-23T08:05:39.252Z,8.49
2022-09-23T08:08:39.257Z,8.57
2022-09-23T08:11:39.275Z,8.68
2022-09-23T08:14:39.258Z,8.67
2022-09-23T08:17:39.270Z,8.72
2022-09-23T08:20:41.557Z,8.76
2022-09-23T08:23:39.267Z,8.92
2022-09-23T08:26:39.277Z,9.02
2022-09-23T08:29:39.292Z,9.06
2022-09-23T08:32:39.273Z,9.08
2022-09-23T08:35:39.276Z,9.07
2022-09-23T08:38:39.274Z,9.09
2022-09-23T08:41:39.279Z,9.11
2022-09-23T08:44:39.279Z,9.1
2022-09-23T08:47:39.301Z,9.17
2022-09-23T08:50:39.282Z,8.94
2022-09-23T08:53:39.284Z,8.84
2022-09-23T08:56:39.292Z,8.83
2022-09-23T08:59:39.287Z,8.93
2022-09-23T09:02:39.293Z,8.89
2022-09-23T09:05:39.315Z,8.82
2022-09-23T09:08:39.290Z,8.87
2022-09-23T09:11:39.295Z,8.88
2022-09-23T09:14:39.298Z,9.05
2022-09-23T09:17:39.292Z,9.09
2022-09-23T09:20:39.302Z,9.14
2022-09-23T09:23:39.326Z,9.33
2022-09-23T09:26:39.299Z,9.44
2022-09-23T09:29:39.515Z,9.23
2022-09-23T09:32:39.307Z,9.06
2022-09-23T09:35:39.306Z,8.97
2022-09-23T09:38:39.311Z,8.68
2022-09-23T09:41:39.353Z,8.56
2022-09-23T09:44:39.315Z,8.36
2022-09-23T09:47:39.312Z,8.45
2022-09-23T09:50:39.319Z,8.51
2022-09-23T09:53:39.264Z,8.48
2022-09-23T09:56:39.280Z,8.58
2022-09-23T09:59:39.286Z,8.53
2022-09-23T10:02:39.262Z,8.68
2022-09-23T10:05:39.266Z,8.51
2022-09-23T10:08:39.264Z,8.54
2022-09-23T10:11:39.263Z,8.41
2022-09-23T10:14:39.272Z,8.42
2022-09-23T10:17:39.292Z,8.54
2022-09-23T10:20:39.262Z,8.53
2022-09-23T10:23:39.268Z,8.65
2022-09-23T10:26:39.271Z,8.53
2022-09-23T10:29:39.276Z,8.5
2022-09-23T10:32:39.269Z,8.41
2022-09-23T10:35:39.313Z,8.33
2022-09-23T10:38:39.281Z,8.25
2022-09-23T10:41:39.286Z,8.35
2022-09-23T10:44:39.288Z,8.48
2022-09-23T10:47:39.297Z,8.41
2022-09-23T10:50:39.293Z,8.11
2022-09-23T10:53:39.384Z,8.04
2022-09-23T10:56:39.380Z,7.82
2022-09-23T10:59:39.315Z,7.97
2022-09-23T11:02:39.314Z,8.02
2022-09-23T11:05:39.317Z,8.14
2022-09-23T11:08:39.321Z,8.11
2022-09-23T11:11:39.348Z,7.97
2022-09-23T11:14:39.348Z,8.13
2022-09-23T11:17:39.327Z,8.06
2022-09-23T11:20:39.334Z,8.09
2022-09-23T11:23:39.339Z,7.74
2022-09-23T11:26:39.342Z,7.63
2022-09-23T11:29:39.469Z,7.77
2022-09-23T11:32:39.349Z,7.94
2022-09-23T11:35:39.352Z,7.95
2022-09-23T11:38:39.354Z,7.89
2022-09-23T11:41:39.360Z,7.77
2022-09-23T11:44:39.360Z,7.67
2022-09-23T11:47:39.992Z,7.87
2022-09-23T11:50:39.371Z,7.91
2022-09-23T11:53:39.368Z,7.82
2022-09-23T11:56:42.056Z,7.67
2022-09-23T11:59:41.066Z,7.58
2022-09-23T12:02:39.645Z,7.71
2022-09-23T12:05:39.582Z,7.77
2022-09-23T12:08:39.385Z,7.58
2022-09-23T12:11:39.387Z,7.45
2022-09-23T12:14:39.387Z,7.52
2022-09-23T12:17:39.391Z,7.69
2022-09-23T12:20:39.396Z,7.67
2022-09-23T12:23:39.422Z,7.66
2022-09-23T12:26:39.407Z,7.74
2022-09-23T12:29:39.405Z,7.75
2022-09-23T12:32:39.408Z,7.8
2022-09-23T12:35:39.415Z,7.61
2022-09-23T12:38:39.416Z,7.6
2022-09-23T12:41:39.487Z,7.55
2022-09-23T12:44:39.421Z,7.6
2022-09-23T12:47:39.424Z,7.48
2022-09-23T12:50:39.429Z,7.43
2022-09-23T12:53:39.437Z,7.37
2022-09-23T12:56:39.435Z,7.27
2022-09-23T12:59:39.473Z,7.3
2022-09-23T13:02:39.442Z,7.12
2022-09-23T13:05:39.450Z,7.29
2022-09-23T13:08:39.452Z,7.25
2022-09-23T13:11:39.452Z,7.44
2022-09-23T13:14:39.458Z,7.36
2022-09-23T13:17:39.494Z,7.35
2022-09-23T13:20:39.467Z,7.37
2022-09-23T13:23:39.479Z,7.39
2022-09-23T13:26:39.472Z,7.41
2022-09-23T13:29:39.475Z,7.37
2022-09-23T13:32:39.477Z,7.37
2022-09-23T13:35:39.506Z,7.44
2022-09-23T13:38:39.486Z,7.4
2022-09-23T13:41:39.486Z,7.35
2022-09-23T13:44:39.492Z,7.28
2022-09-23T13:47:39.496Z,7.34
2022-09-23T13:50:39.499Z,7.29
2022-09-23T13:53:39.524Z,7.3
2022-09-23T13:56:39.509Z,7.3
2022-09-23T13:59:39.519Z,7.27
2022-09-23T14:02:39.532Z,7.19
2022-09-23T14:05:39.520Z,7.24
2022-09-23T14:08:39.526Z,7.32
2022-09-23T14:11:39.553Z,7.54
2022-09-23T14:14:39.529Z,7.36
2022-09-23T14:17:39.537Z,7.32
2022-09-23T14:20:39.545Z,7.26
2022-09-23T14:23:39.543Z,7.32
2022-09-23T14:26:39.552Z,7.4
2022-09-23T14:29:39.576Z,7.3
2022-09-23T14:32:39.561Z,7.37
2022-09-23T14:35:39.567Z,7.23
2022-09-23T14:38:39.565Z,7.27
2022-09-23T14:41:39.570Z,7.35
2022-09-23T14:44:39.575Z,7.34
2022-09-23T14:47:39.610Z,7.28
2022-09-23T14:50:39.968Z,7.27
2022-09-23T14:53:39.586Z,7.26
2022-09-23T14:56:39.596Z,7.3
2022-09-23T14:59:39.599Z,7.29
2022-09-23T15:02:39.610Z,7.11
2022-09-23T15:05:39.641Z,7.2
2022-09-23T15:08:39.620Z,7.23
2022-09-23T15:11:39.622Z,7.11
2022-09-23T15:14:40.924Z,7.11
2022-09-23T15:17:39.632Z,7.19
2022-09-23T15:20:39.640Z,7.19
2022-09-23T15:23:39.666Z,7.2
2022-09-23T15:26:39.649Z,7.23
2022-09-23T15:29:39.846Z,7.27
2022-09-23T15:32:39.653Z,7.28
2022-09-23T15:35:39.666Z,7.27
2022-09-23T15:38:39.664Z,7.32
2022-09-23T15:41:39.703Z,7.39
2022-09-23T15:44:39.683Z,7.42
2022-09-23T15:47:39.687Z,7.4
2022-09-23T15:50:39.687Z,7.47
2022-09-23T15:53:39.697Z,7.48
2022-09-23T15:56:39.715Z,7.45
2022-09-23T15:59:39.733Z,7.51
2022-09-23T16:02:39.733Z,7.49
2022-09-23T16:05:39.715Z,7.51
2022-09-23T16:08:39.723Z,7.56
2022-09-23T16:11:39.725Z,7.54
2022-09-23T16:14:39.740Z,7.53
2022-09-23T16:17:39.769Z,7.59
2022-09-23T16:20:39.743Z,7.58
2022-09-23T16:23:39.747Z,7.7
2022-09-23T16:26:39.762Z,7.51
2022-09-23T16:29:39.768Z,7.56
2022-09-23T16:32:39.763Z,7.63
2022-09-23T16:35:39.790Z,7.71
2022-09-23T16:38:39.770Z,8.01
2022-09-23T16:41:39.778Z,8
2022-09-23T16:44:39.785Z,8.06
2022-09-23T16:47:39.783Z,7.96
2022-09-23T16:50:39.784Z,8.05
2022-09-23T16:53:39.819Z,8.2
2022-09-23T16:56:39.796Z,8.25
2022-09-23T16:59:39.796Z,8.17
2022-09-23T17:02:40.172Z,8.11
2022-09-23T17:05:39.805Z,8.27
2022-09-23T17:08:39.810Z,8.42
2022-09-23T17:11:39.840Z,8.47
2022-09-23T17:14:39.809Z,8.5
2022-09-23T17:17:39.815Z,8.49
2022-09-23T17:20:39.810Z,8.56
2022-09-23T17:23:39.820Z,8.65
2022-09-23T17:26:39.823Z,8.74
2022-09-23T17:29:39.849Z,8.73
2022-09-23T17:32:39.829Z,8.62
2022-09-23T17:35:39.853Z,8.66
2022-09-23T17:38:39.857Z,8.75
2022-09-23T17:41:39.858Z,8.69
2022-09-23T17:44:39.857Z,8.71
2022-09-23T17:47:41.748Z,8.77
2022-09-23T17:50:39.872Z,8.76
2022-09-23T17:53:39.875Z,8.84
2022-09-23T17:56:39.877Z,8.8
2022-09-23T17:59:39.885Z,8.77
2022-09-23T18:02:39.888Z,8.75
2022-09-23T18:05:39.990Z,8.8
2022-09-23T18:08:39.901Z,8.89
2022-09-23T18:11:40.028Z,8.87
2022-09-23T18:14:39.922Z,8.88
2022-09-23T18:17:39.923Z,8.93
2022-09-23T18:20:39.930Z,8.95
2022-09-23T18:23:39.974Z,9
2022-09-23T18:26:39.951Z,9.01
2022-09-23T18:29:40.219Z,8.87
2022-09-23T18:32:39.983Z,8.85
2022-09-23T18:35:39.964Z,8.91
2022-09-23T18:38:39.978Z,8.69
2022-09-23T18:41:40.004Z,8.65
2022-09-23T18:44:39.986Z,8.7
2022-09-23T18:47:39.993Z,8.72
2022-09-23T18:50:39.995Z,8.72
2022-09-23T18:53:40.002Z,8.7
2022-09-23T18:56:40.014Z,8.68
2022-09-23T18:59:40.055Z,8.64
2022-09-23T19:02:40.026Z,8.62
2022-09-23T19:05:40.040Z,8.61
2022-09-23T19:08:40.033Z,8.56
2022-09-23T19:11:40.041Z,8.6
2022-09-23T19:14:40.058Z,8.67
2022-09-23T19:17:40.085Z,8.66
2022-09-23T19:20:40.073Z,8.62
2022-09-23T19:23:40.078Z,8.66
2022-09-23T19:26:40.085Z,8.71
2022-09-23T19:29:40.085Z,8.75
2022-09-23T19:32:40.104Z,8.78
2022-09-23T19:35:40.124Z,8.7
2022-09-23T19:38:40.112Z,8.73
2022-09-23T19:41:40.115Z,8.71
2022-09-23T19:44:40.124Z,8.74
2022-09-23T19:47:40.130Z,8.75
2022-09-23T19:50:40.136Z,8.67
2022-09-23T19:53:40.168Z,8.81
2022-09-23T19:56:40.148Z,9.01
2022-09-23T19:59:40.154Z,9.12
2022-09-23T20:02:40.161Z,9.15
2022-09-23T20:05:40.166Z,9.16
2022-09-23T20:08:40.180Z,9.19
2022-09-23T20:11:40.211Z,9.2
2022-09-23T20:14:40.189Z,9.19
2022-09-23T20:17:40.202Z,9.22
2022-09-23T20:20:40.206Z,9.15
2022-09-23T20:23:40.212Z,9.13
2022-09-23T20:26:40.222Z,9.13
2022-09-23T20:29:40.251Z,9.19
2022-09-23T20:32:44.002Z,9.21
2022-09-23T20:35:40.241Z,9.24
2022-09-23T20:38:40.249Z,9.19
2022-09-23T20:41:40.254Z,9.2
2022-09-23T20:44:40.256Z,9.14
2022-09-23T20:47:40.291Z,9.2
2022-09-23T20:50:40.273Z,9.24
2022-09-23T20:53:40.286Z,9.18
2022-09-23T20:56:40.601Z,9.23
2022-09-23T20:59:40.322Z,9.25
2022-09-23T21:02:40.300Z,9.14
2022-09-23T21:05:40.344Z,9.14
2022-09-23T21:08:40.316Z,9.08
2022-09-23T21:11:40.322Z,9.1
2022-09-23T21:14:40.329Z,9.1
2022-09-23T21:17:40.334Z,9.12
2022-09-23T21:20:40.339Z,9.12
2022-09-23T21:23:40.388Z,9.11
2022-09-23T21:26:40.358Z,9.11
2022-09-23T21:29:40.370Z,9.11
2022-09-23T21:32:40.377Z,9.05
2022-09-23T21:35:40.389Z,8.99
2022-09-23T21:38:40.407Z,8.95
2022-09-23T21:41:40.444Z,9.02
2022-09-23T21:44:40.428Z,9.16
2022-09-23T21:47:40.437Z,9.2
2022-09-23T21:50:40.445Z,9.19
2022-09-23T21:53:40.456Z,9.23
2022-09-23T21:56:40.466Z,9.18
2022-09-23T21:59:40.496Z,9.18
2022-09-23T22:02:40.483Z,9.17
2022-09-23T22:05:40.493Z,9.16
2022-09-23T22:08:40.502Z,9.09
2022-09-23T22:11:40.513Z,9.07
2022-09-23T22:14:40.524Z,9.03
2022-09-23T22:17:40.557Z,9.03
2022-09-23T22:20:40.542Z,9.04
2022-09-23T22:23:40.556Z,9
2022-09-23T22:26:40.568Z,9
2022-09-23T22:29:40.579Z,9.02
2022-09-23T22:32:40.715Z,9.02
2022-09-23T22:35:40.620Z,9.04
2022-09-23T22:38:40.608Z,8.97
2022-09-23T22:41:40.624Z,8.96
2022-09-23T22:44:40.630Z,8.97
2022-09-23T22:47:40.643Z,8.95
2022-09-23T22:50:40.651Z,8.96
2022-09-23T22:53:40.686Z,9.03
2022-09-23T22:56:40.673Z,9.05
2022-09-23T22:59:40.687Z,9.06
2022-09-23T23:02:40.699Z,9.03
2022-09-23T23:05:40.709Z,9.02
2022-09-23T23:08:40.715Z,8.97
2022-09-23T23:11:40.746Z,8.95
2022-09-23T23:14:40.741Z,8.97
2022-09-23T23:17:40.753Z,8.95
2022-09-23T23:20:40.763Z,8.94
2022-09-23T23:23:40.790Z,8.9
2022-09-23T23:26:40.788Z,8.88
2022-09-23T23:29:40.817Z,8.89
2022-09-23T23:32:40.822Z,8.89
2022-09-23T23:35:40.832Z,8.88
2022-09-23T23:38:40.838Z,8.89
2022-09-23T23:41:40.853Z,8.9
2022-09-23T23:44:40.862Z,8.92
2022-09-23T23:47:40.906Z,8.92
2022-09-23T23:50:40.893Z,8.93
2022-09-23T23:53:40.910Z,8.95
2022-09-23T23:56:40.924Z,8.94
2022-09-23T23:59:40.942Z,8.91
